logo
Search for airport 
image banner adimage banner adimage banner ad
image banner ad

CFW8 - Grand Falls-Windsor

Located in , Canada

ICAO - CFW8, IATA -

Data provided by Airmate  

General information

Coordinates: N48°55'29" W55°38'50"
Elevation is 157 feet MSL.
Magnetic variation is -19.5525° East
View others Airports in Newfoundland and Labrador

Operational data

Special qualification required
Current time UTC:
Current local time:
Weather at : CYQX - Gander Intl ( 79 km )
METAR: CYQX 171300Z 20009KT 15SM -RA OVC007 20/20 A2966 RMK SC8 SLP047 DENSITY ALT 1500FT
TAF: TAF CYQX 171141Z 1712/1812 21010KT 5SM -SHRA BR BKN004 OVC025 TEMPO 1712/1713 P6SM NSW SCT004 SCT025 BKN090 FM171300 27008KT P6SM SCT008 SCT015 BKN025 TEMPO 1713/1722 5SM -SHRA BR OVC015 FM172200 26008KT P6SM FEW004 SCT010 BKN025 BECMG 1722/1724 VRB03KT FM180200 VRB03KT P6SM SCT004 BKN008 PROB30 1802/1806 2SM BR OVC003 FM180600 VRB03KT 6SM BR OVC004 PROB40 1806/1810 2SM BR OVC003 BECMG 1810/1812 P6SM NSW SCT004 RMK NXT FCST BY 171800Z
View NOTAMs / SUP AIP / TFR affecting this airport [VIEW]
Communications frequencies: [VIEW]

Runways:

Airport contact information

Address: Canada

Satellite view of CFW8